sensor_id;sensor_type;location;lat;lon;timestamp;pressure;altitude;pressure_sealevel;temperature;humidity
7441;BME280;29616;51.950;8.572;2023-02-10T00:00:28;101868.34;;;3.23;100.00
7441;BME280;29616;51.950;8.572;2023-02-10T00:02:58;101865.75;;;3.20;100.00
7441;BME280;29616;51.950;8.572;2023-02-10T00:05:26;101863.84;;;3.22;100.00
7441;BME280;29616;51.950;8.572;2023-02-10T00:07:54;101873.97;;;3.17;100.00
7441;BME280;29616;51.950;8.572;2023-02-10T00:10:24;101861.34;;;3.18;100.00
7441;BME280;29616;51.950;8.572;2023-02-10T00:12:53;101865.75;;;3.20;100.00
7441;BME280;29616;51.950;8.572;2023-02-10T00:15:24;101870.03;;;3.26;100.00
7441;BME280;29616;51.950;8.572;2023-02-10T00:17:52;101867.31;;;3.26;100.00
7441;BME280;29616;51.950;8.572;2023-02-10T00:20:23;101873.66;;;3.25;100.00
7441;BME280;29616;51.950;8.572;2023-02-10T00:22:52;101876.44;;;3.23;100.00
7441;BME280;29616;51.950;8.572;2023-02-10T00:25:22;101863.00;;;3.22;100.00
7441;BME280;29616;51.950;8.572;2023-02-10T00:27:51;101870.91;;;3.26;100.00
7441;BME280;29616;51.950;8.572;2023-02-10T00:30:19;101864.50;;;3.29;100.00
7441;BME280;29616;51.950;8.572;2023-02-10T00:32:50;101870.84;;;3.28;100.00
7441;BME280;29616;51.950;8.572;2023-02-10T00:35:24;101869.03;;;3.28;100.00
7441;BME280;29616;51.950;8.572;2023-02-10T00:37:53;101867.28;;;3.27;100.00
7441;BME280;29616;51.950;8.572;2023-02-10T00:40:24;101862.72;;;3.28;100.00
7441;BME280;29616;51.950;8.572;2023-02-10T00:42:52;101869.25;;;3.22;100.00
7441;BME280;29616;51.950;8.572;2023-02-10T00:45:21;101863.75;;;3.25;100.00
7441;BME280;29616;51.950;8.572;2023-02-10T00:47:51;101860.47;;;3.17;100.00
7441;BME280;29616;51.950;8.572;2023-02-10T00:50:21;101875.44;;;3.26;100.00
7441;BME280;29616;51.950;8.572;2023-02-10T00:52:50;101877.22;;;3.27;100.00
7441;BME280;29616;51.950;8.572;2023-02-10T00:55:19;101885.31;;;3.27;100.00
7441;BME280;29616;51.950;8.572;2023-02-10T00:57:47;101887.13;;;3.26;100.00
7441;BME280;29616;51.950;8.572;2023-02-10T01:00:16;101883.63;;;3.24;100.00
7441;BME280;29616;51.950;8.572;2023-02-10T01:02:46;101867.22;;;3.07;100.00
7441;BME280;29616;51.950;8.572;2023-02-10T01:05:15;101882.22;;;3.14;100.00
7441;BME280;29616;51.950;8.572;2023-02-10T01:07:45;101891.16;;;3.16;100.00
7441;BME280;29616;51.950;8.572;2023-02-10T01:10:13;101879.09;;;3.03;100.00
7441;BME280;29616;51.950;8.572;2023-02-10T01:12:45;101885.88;;;3.13;100.00
7441;BME280;29616;51.950;8.572;2023-02-10T01:15:13;101876.56;;;3.20;100.00
7441;BME280;29616;51.950;8.572;2023-02-10T01:17:43;101885.78;;;3.36;100.00
7441;BME280;29616;51.950;8.572;2023-02-10T01:20:12;101885.91;;;3.33;100.00
7441;BME280;29616;51.950;8.572;2023-02-10T01:22:44;101888.38;;;3.39;100.00
7441;BME280;29616;51.950;8.572;2023-02-10T01:25:13;101889.22;;;3.61;100.00
7441;BME280;29616;51.950;8.572;2023-02-10T01:27:42;101897.91;;;3.70;100.00
7441;BME280;29616;51.950;8.572;2023-02-10T01:30:11;101903.09;;;3.74;100.00
7441;BME280;29616;51.950;8.572;2023-02-10T01:32:41;101880.16;;;3.62;100.00
7441;BME280;29616;51.950;8.572;2023-02-10T01:35:09;101897.72;;;3.73;100.00
7441;BME280;29616;51.950;8.572;2023-02-10T01:37:39;101902.88;;;3.79;100.00
7441;BME280;29616;51.950;8.572;2023-02-10T01:40:09;101904.56;;;3.81;100.00
7441;BME280;29616;51.950;8.572;2023-02-10T01:42:40;101902.75;;;3.82;100.00
7441;BME280;29616;51.950;8.572;2023-02-10T01:45:19;101883.28;;;3.74;100.00
7441;BME280;29616;51.950;8.572;2023-02-10T01:47:51;101900.47;;;3.93;100.00
7441;BME280;29616;51.950;8.572;2023-02-10T01:50:23;101875.44;;;3.88;100.00
7441;BME280;29616;51.950;8.572;2023-02-10T01:52:55;101894.13;;;3.94;100.00
7441;BME280;29616;51.950;8.572;2023-02-10T01:55:30;101895.94;;;3.93;100.00
7441;BME280;29616;51.950;8.572;2023-02-10T01:58:08;101900.47;;;3.93;100.00
7441;BME280;29616;51.950;8.572;2023-02-10T02:00:38;101888.56;;;3.77;100.00
7441;BME280;29616;51.950;8.572;2023-02-10T02:03:10;101903.31;;;3.90;100.00
7441;BME280;29616;51.950;8.572;2023-02-10T02:05:42;101878.00;;;3.71;100.00
7441;BME280;29616;51.950;8.572;2023-02-10T02:08:16;101890.31;;;3.78;100.00
7441;BME280;29616;51.950;8.572;2023-02-10T02:10:58;101906.91;;;3.90;100.00
7441;BME280;29616;51.950;8.572;2023-02-10T02:13:42;101901.63;;;3.87;100.00
7441;BME280;29616;51.950;8.572;2023-02-10T02:16:30;101893.84;;;3.80;100.00
7441;BME280;29616;51.950;8.572;2023-02-10T02:19:25;101906.56;;;3.78;100.00
7441;BME280;29616;51.950;8.572;2023-02-10T02:22:26;101904.44;;;3.84;100.00
7441;BME280;29616;51.950;8.572;2023-02-10T02:25:12;101900.47;;;3.93;100.00
7441;BME280;29616;51.950;8.572;2023-02-10T02:28:03;101888.13;;;3.65;100.00
7441;BME280;29616;51.950;8.572;2023-02-10T02:31:03;101890.72;;;3.68;100.00
7441;BME280;29616;51.950;8.572;2023-02-10T02:33:46;101913.69;;;3.79;100.00
7441;BME280;29616;51.950;8.572;2023-02-10T02:36:21;101897.94;;;3.68;100.00
7441;BME280;29616;51.950;8.572;2023-02-10T02:38:59;101913.84;;;3.76;100.00
7441;BME280;29616;51.950;8.572;2023-02-10T02:41:31;101912.22;;;3.72;100.00
7441;BME280;29616;51.950;8.572;2023-02-10T02:44:06;101908.41;;;3.76;100.00
7441;BME280;29616;51.950;8.572;2023-02-10T02:46:50;101900.50;;;3.71;100.00
7441;BME280;29616;51.950;8.572;2023-02-10T02:49:29;101910.31;;;3.74;100.00
7441;BME280;29616;51.950;8.572;2023-02-10T02:52:05;101908.72;;;3.70;100.00
7441;BME280;29616;51.950;8.572;2023-02-10T02:54:41;101901.41;;;3.72;100.00
7441;BME280;29616;51.950;8.572;2023-02-10T02:57:22;101913.97;;;3.73;100.00
7441;BME280;29616;51.950;8.572;2023-02-10T02:59:59;101915.69;;;3.75;100.00
7441;BME280;29616;51.950;8.572;2023-02-10T03:02:31;101911.97;;;3.78;100.00
7441;BME280;29616;51.950;8.572;2023-02-10T03:05:03;101898.81;;;3.68;100.00
7441;BME280;29616;51.950;8.572;2023-02-10T03:07:32;101923.47;;;3.83;100.00
7441;BME280;29616;51.950;8.572;2023-02-10T03:10:03;101884.75;;;3.81;100.00
7441;BME280;29616;51.950;8.572;2023-02-10T03:12:32;101899.25;;;3.80;100.00
7441;BME280;29616;51.950;8.572;2023-02-10T03:15:02;101900.84;;;3.84;100.00
7441;BME280;29616;51.950;8.572;2023-02-10T03:17:31;101910.47;;;3.91;100.00
7441;BME280;29616;51.950;8.572;2023-02-10T03:19:59;101902.00;;;3.78;100.00
7441;BME280;29616;51.950;8.572;2023-02-10T03:22:30;101905.03;;;3.71;100.00
7441;BME280;29616;51.950;8.572;2023-02-10T03:24:59;101904.03;;;3.73;100.00
7441;BME280;29616;51.950;8.572;2023-02-10T03:27:29;101901.16;;;3.78;100.00
7441;BME280;29616;51.950;8.572;2023-02-10T03:29:59;101901.06;;;3.79;100.00
7441;BME280;29616;51.950;8.572;2023-02-10T03:32:27;101898.34;;;3.79;100.00
7441;BME280;29616;51.950;8.572;2023-02-10T03:34:56;101879.09;;;3.66;100.00
7441;BME280;29616;51.950;8.572;2023-02-10T03:37:24;101898.03;;;3.66;100.00
7441;BME280;29616;51.950;8.572;2023-02-10T03:39:55;101902.53;;;3.66;100.00
7441;BME280;29616;51.950;8.572;2023-02-10T03:42:25;101904.44;;;3.64;100.00
7441;BME280;29616;51.950;8.572;2023-02-10T03:44:53;101903.69;;;3.60;100.00
7441;BME280;29616;51.950;8.572;2023-02-10T03:47:22;101910.88;;;3.61;100.00
7441;BME280;29616;51.950;8.572;2023-02-10T03:49:52;101910.53;;;3.69;100.00
7441;BME280;29616;51.950;8.572;2023-02-10T03:52:21;101893.81;;;3.59;100.00
7441;BME280;29616;51.950;8.572;2023-02-10T03:54:49;101912.47;;;3.65;100.00
7441;BME280;29616;51.950;8.572;2023-02-10T03:57:21;101918.63;;;3.69;100.00
7441;BME280;29616;51.950;8.572;2023-02-10T03:59:50;101926.00;;;3.65;100.00
7441;BME280;29616;51.950;8.572;2023-02-10T04:02:20;101919.53;;;3.70;100.00
7441;BME280;29616;51.950;8.572;2023-02-10T04:04:49;101915.13;;;3.67;100.00
7441;BME280;29616;51.950;8.572;2023-02-10T04:07:18;101918.00;;;3.62;100.00
7441;BME280;29616;51.950;8.572;2023-02-10T04:09:47;101918.84;;;3.64;100.00
7441;BME280;29616;51.950;8.572;2023-02-10T04:12:16;101905.50;;;3.60;100.00
7441;BME280;29616;51.950;8.572;2023-02-10T04:14:46;101900.44;;;3.52;100.00
7441;BME280;29616;51.950;8.572;2023-02-10T04:17:15;101909.47;;;3.51;100.00
7441;BME280;29616;51.950;8.572;2023-02-10T04:19:43;101918.28;;;3.56;100.00
7441;BME280;29616;51.950;8.572;2023-02-10T04:22:13;101930.03;;;3.55;100.00
7441;BME280;29616;51.950;8.572;2023-02-10T04:24:42;101909.47;;;3.51;100.00
7441;BME280;29616;51.950;8.572;2023-02-10T04:27:10;101924.06;;;3.47;100.00
7441;BME280;29616;51.950;8.572;2023-02-10T04:29:40;101924.97;;;3.48;100.00
7441;BME280;29616;51.950;8.572;2023-02-10T04:32:11;101925.78;;;3.50;100.00
7441;BME280;29616;51.950;8.572;2023-02-10T04:34:39;101929.34;;;3.50;100.00
7441;BME280;29616;51.950;8.572;2023-02-10T04:37:09;101908.50;;;3.32;100.00
7441;BME280;29616;51.950;8.572;2023-02-10T04:39:40;101922.44;;;3.43;100.00
7441;BME280;29616;51.950;8.572;2023-02-10T04:42:08;101927.22;;;3.37;100.00
7441;BME280;29616;51.950;8.572;2023-02-10T04:44:38;101918.09;;;3.39;100.00
7441;BME280;29616;51.950;8.572;2023-02-10T04:47:09;101922.72;;;3.37;100.00
7441;BME280;29616;51.950;8.572;2023-02-10T04:49:38;101919.19;;;3.35;100.00
7441;BME280;29616;51.950;8.572;2023-02-10T04:52:08;101924.84;;;3.29;100.00
7441;BME280;29616;51.950;8.572;2023-02-10T04:54:37;101909.00;;;3.20;100.00
7441;BME280;29616;51.950;8.572;2023-02-10T04:57:06;101925.97;;;3.24;100.00
7441;BME280;29616;51.950;8.572;2023-02-10T04:59:34;101920.59;;;3.22;100.00
7441;BME280;29616;51.950;8.572;2023-02-10T05:02:03;101916.38;;;3.17;100.00
7441;BME280;29616;51.950;8.572;2023-02-10T05:04:33;101926.84;;;3.24;100.00
7441;BME280;29616;51.950;8.572;2023-02-10T05:07:04;101924.41;;;3.18;100.00
7441;BME280;29616;51.950;8.572;2023-02-10T05:09:32;101921.69;;;3.18;100.00
7441;BME280;29616;51.950;8.572;2023-02-10T05:12:01;101912.66;;;3.19;100.00
7441;BME280;29616;51.950;8.572;2023-02-10T05:14:30;101919.06;;;3.17;100.00
7441;BME280;29616;51.950;8.572;2023-02-10T05:16:58;101917.50;;;3.11;100.00
7441;BME280;29616;51.950;8.572;2023-02-10T05:19:27;101919.34;;;3.09;100.00
7441;BME280;29616;51.950;8.572;2023-02-10T05:21:58;101911.63;;;3.00;100.00
7441;BME280;29616;51.950;8.572;2023-02-10T05:24:27;101920.31;;;3.08;100.00
7441;BME280;29616;51.950;8.572;2023-02-10T05:26:57;101921.00;;;3.13;100.00
7441;BME280;29616;51.950;8.572;2023-02-10T05:29:26;101922.13;;;3.08;100.00
7441;BME280;29616;51.950;8.572;2023-02-10T05:31:56;101916.81;;;3.06;100.00
7441;BME280;29616;51.950;8.572;2023-02-10T05:34:25;101925.16;;;3.00;100.00
7441;BME280;29616;51.950;8.572;2023-02-10T05:36:54;101931.34;;;3.02;100.00
7441;BME280;29616;51.950;8.572;2023-02-10T05:39:24;101933.25;;;3.00;100.00
7441;BME280;29616;51.950;8.572;2023-02-10T05:41:54;101932.16;;;3.04;100.00
7441;BME280;29616;51.950;8.572;2023-02-10T05:44:26;101939.66;;;2.97;100.00
7441;BME280;29616;51.950;8.572;2023-02-10T05:46:55;101963.53;;;3.08;100.00
7441;BME280;29616;51.950;8.572;2023-02-10T05:49:25;101961.53;;;3.13;100.00
7441;BME280;29616;51.950;8.572;2023-02-10T05:51:53;101969.44;;;3.18;100.00
7441;BME280;29616;51.950;8.572;2023-02-10T05:54:24;101966.16;;;3.10;100.00
7441;BME280;29616;51.950;8.572;2023-02-10T05:56:54;101968.06;;;3.08;100.00
7441;BME280;29616;51.950;8.572;2023-02-10T05:59:24;101961.78;;;3.07;100.00
7441;BME280;29616;51.950;8.572;2023-02-10T06:01:53;101975.09;;;3.12;100.00
7441;BME280;29616;51.950;8.572;2023-02-10T06:04:24;101957.69;;;2.97;100.00
7441;BME280;29616;51.950;8.572;2023-02-10T06:06:52;101976.78;;;3.14;100.00
7441;BME280;29616;51.950;8.572;2023-02-10T06:09:21;101979.63;;;3.11;100.00
7441;BME280;29616;51.950;8.572;2023-02-10T06:11:52;101978.78;;;3.09;100.00
7441;BME280;29616;51.950;8.572;2023-02-10T06:14:22;101980.22;;;2.96;100.00
7441;BME280;29616;51.950;8.572;2023-02-10T06:16:51;101988.09;;;3.02;100.00
7441;BME280;29616;51.950;8.572;2023-02-10T06:19:21;101984.56;;;3.00;100.00
7441;BME280;29616;51.950;8.572;2023-02-10T06:21:50;101970.28;;;2.96;100.00
7441;BME280;29616;51.950;8.572;2023-02-10T06:24:19;101985.50;;;2.99;100.00
7441;BME280;29616;51.950;8.572;2023-02-10T06:26:48;102001.38;;;3.08;100.00
7441;BME280;29616;51.950;8.572;2023-02-10T06:29:20;101995.78;;;3.13;100.00
7441;BME280;29616;51.950;8.572;2023-02-10T06:31:48;102016.50;;;3.12;100.00
7441;BME280;29616;51.950;8.572;2023-02-10T06:34:17;102012.69;;;3.18;100.00
7441;BME280;29616;51.950;8.572;2023-02-10T06:36:45;102024.50;;;3.15;100.00
7441;BME280;29616;51.950;8.572;2023-02-10T06:39:16;102017.69;;;3.05;100.00
7441;BME280;29616;51.950;8.572;2023-02-10T06:41:44;102029.78;;;3.18;100.00
7441;BME280;29616;51.950;8.572;2023-02-10T06:44:13;102007.78;;;3.05;100.00
7441;BME280;29616;51.950;8.572;2023-02-10T06:46:42;102021.78;;;3.15;100.00
7441;BME280;29616;51.950;8.572;2023-02-10T06:49:11;101986.81;;;2.89;100.00
7441;BME280;29616;51.950;8.572;2023-02-10T06:51:41;102005.00;;;3.07;100.00
7441;BME280;29616;51.950;8.572;2023-02-10T06:54:10;102012.06;;;3.11;100.00
7441;BME280;29616;51.950;8.572;2023-02-10T06:56:39;102026.00;;;3.22;100.00
7441;BME280;29616;51.950;8.572;2023-02-10T06:59:09;102026.41;;;3.12;100.00
7441;BME280;29616;51.950;8.572;2023-02-10T07:01:38;102030.19;;;3.08;100.00
7441;BME280;29616;51.950;8.572;2023-02-10T07:04:09;102025.72;;;3.06;100.00
7441;BME280;29616;51.950;8.572;2023-02-10T07:06:38;102033.50;;;3.16;100.00
7441;BME280;29616;51.950;8.572;2023-02-10T07:09:07;102037.00;;;3.18;100.00
7441;BME280;29616;51.950;8.572;2023-02-10T07:11:37;102042.47;;;3.16;100.00
7441;BME280;29616;51.950;8.572;2023-02-10T07:14:06;102028.38;;;3.08;100.00
7441;BME280;29616;51.950;8.572;2023-02-10T07:16:35;102031.72;;;3.15;100.00
7441;BME280;29616;51.950;8.572;2023-02-10T07:19:03;102022.22;;;3.04;100.00
7441;BME280;29616;51.950;8.572;2023-02-10T07:21:32;102038.22;;;3.09;100.00
7441;BME280;29616;51.950;8.572;2023-02-10T07:24:02;102044.88;;;3.24;100.00
7441;BME280;29616;51.950;8.572;2023-02-10T07:26:32;102034.25;;;3.19;100.00
7441;BME280;29616;51.950;8.572;2023-02-10T07:29:02;102046.00;;;3.18;100.00
7441;BME280;29616;51.950;8.572;2023-02-10T07:31:32;102040.59;;;3.18;100.00
7441;BME280;29616;51.950;8.572;2023-02-10T07:34:03;102040.81;;;3.35;100.00
7441;BME280;29616;51.950;8.572;2023-02-10T07:36:33;102030.72;;;3.40;100.00
7441;BME280;29616;51.950;8.572;2023-02-10T07:39:02;102033.00;;;3.28;100.00
7441;BME280;29616;51.950;8.572;2023-02-10T07:41:31;102041.41;;;3.20;100.00
7441;BME280;29616;51.950;8.572;2023-02-10T07:44:02;102038.69;;;3.20;100.00
7441;BME280;29616;51.950;8.572;2023-02-10T07:46:31;102039.47;;;3.24;100.00
7441;BME280;29616;51.950;8.572;2023-02-10T07:48:59;102029.44;;;3.27;100.00
7441;BME280;29616;51.950;8.572;2023-02-10T07:51:29;102032.56;;;3.38;100.00
7441;BME280;29616;51.950;8.572;2023-02-10T07:53:59;102029.88;;;3.38;100.00
7441;BME280;29616;51.950;8.572;2023-02-10T07:56:28;102043.97;;;3.46;100.00
7441;BME280;29616;51.950;8.572;2023-02-10T07:58:57;102036.34;;;3.34;100.00
7441;BME280;29616;51.950;8.572;2023-02-10T08:01:26;102021.84;;;3.37;100.00
7441;BME280;29616;51.950;8.572;2023-02-10T08:03:56;102030.72;;;3.40;100.00
7441;BME280;29616;51.950;8.572;2023-02-10T08:06:26;102012.78;;;3.38;100.00
7441;BME280;29616;51.950;8.572;2023-02-10T08:08:55;102044.53;;;3.54;100.00
7441;BME280;29616;51.950;8.572;2023-02-10T08:11:25;102035.69;;;3.51;100.00
7441;BME280;29616;51.950;8.572;2023-02-10T08:13:54;102043.41;;;3.60;100.00
7441;BME280;29616;51.950;8.572;2023-02-10T08:16:24;102043.47;;;3.58;100.00
7441;BME280;29616;51.950;8.572;2023-02-10T08:18:54;102046.91;;;3.62;100.00
7441;BME280;29616;51.950;8.572;2023-02-10T08:21:26;102043.66;;;3.76;100.00
7441;BME280;29616;51.950;8.572;2023-02-10T08:23:57;102046.81;;;3.65;100.00
7441;BME280;29616;51.950;8.572;2023-02-10T08:26:26;102056.63;;;3.67;100.00
7441;BME280;29616;51.950;8.572;2023-02-10T08:28:57;102053.78;;;3.71;100.00
7441;BME280;29616;51.950;8.572;2023-02-10T08:31:28;102060.00;;;3.73;100.00
7441;BME280;29616;51.950;8.572;2023-02-10T08:33:58;102060.00;;;3.73;100.00
7441;BME280;29616;51.950;8.572;2023-02-10T08:36:27;102061.28;;;3.86;100.00
7441;BME280;29616;51.950;8.572;2023-02-10T08:38:57;102052.47;;;3.81;100.00
7441;BME280;29616;51.950;8.572;2023-02-10T08:41:32;102045.91;;;3.86;100.00
7441;BME280;29616;51.950;8.572;2023-02-10T08:44:04;102061.78;;;3.95;100.00
7441;BME280;29616;51.950;8.572;2023-02-10T08:46:32;102068.53;;;4.07;100.00
7441;BME280;29616;51.950;8.572;2023-02-10T08:49:03;102049.19;;;3.94;100.00
7441;BME280;29616;51.950;8.572;2023-02-10T08:51:32;102063.34;;;4.01;100.00
7441;BME280;29616;51.950;8.572;2023-02-10T08:54:03;102050.63;;;4.03;100.00
7441;BME280;29616;51.950;8.572;2023-02-10T08:56:34;102052.97;;;4.12;100.00
7441;BME280;29616;51.950;8.572;2023-02-10T08:59:03;102054.19;;;4.25;100.00
7441;BME280;29616;51.950;8.572;2023-02-10T09:01:31;102079.00;;;4.36;100.00
7441;BME280;29616;51.950;8.572;2023-02-10T09:04:02;102073.94;;;4.27;100.00
7441;BME280;29616;51.950;8.572;2023-02-10T09:06:34;102070.69;;;4.19;100.00
7441;BME280;29616;51.950;8.572;2023-02-10T09:09:07;102068.78;;;4.21;100.00
7441;BME280;29616;51.950;8.572;2023-02-10T09:11:38;102063.91;;;4.09;100.00
7441;BME280;29616;51.950;8.572;2023-02-10T09:14:10;102074.97;;;4.24;100.00
7441;BME280;29616;51.950;8.572;2023-02-10T09:16:40;102081.28;;;4.25;100.00
7441;BME280;29616;51.950;8.572;2023-02-10T09:19:09;102072.72;;;4.14;100.00
7441;BME280;29616;51.950;8.572;2023-02-10T09:21:40;102072.69;;;4.36;100.00
7441;BME280;29616;51.950;8.572;2023-02-10T09:24:14;102050.63;;;4.03;100.00
7441;BME280;29616;51.950;8.572;2023-02-10T09:26:44;102070.50;;;4.23;100.00
7441;BME280;29616;51.950;8.572;2023-02-10T09:29:12;102073.50;;;4.38;100.00
7441;BME280;29616;51.950;8.572;2023-02-10T09:31:42;102061.97;;;4.33;100.00
7441;BME280;29616;51.950;8.572;2023-02-10T09:34:15;102083.06;;;4.46;100.00
7441;BME280;29616;51.950;8.572;2023-02-10T09:36:44;102085.34;;;4.55;100.00
7441;BME280;29616;51.950;8.572;2023-02-10T09:39:12;102085.09;;;4.61;100.00
7441;BME280;29616;51.950;8.572;2023-02-10T09:41:55;102066.59;;;4.51;100.00
7441;BME280;29616;51.950;8.572;2023-02-10T09:44:33;102079.44;;;4.66;100.00
7441;BME280;29616;51.950;8.572;2023-02-10T09:47:25;102065.19;;;4.62;100.00
7441;BME280;29616;51.950;8.572;2023-02-10T09:50:20;102082.66;;;4.75;100.00
7441;BME280;29616;51.950;8.572;2023-02-10T09:52:58;102087.19;;;4.75;100.00
7441;BME280;29616;51.950;8.572;2023-02-10T09:55:33;102076.03;;;4.62;100.00
7441;BME280;29616;51.950;8.572;2023-02-10T09:58:17;102097.31;;;4.90;100.00
7441;BME280;29616;51.950;8.572;2023-02-10T10:00:52;102074.09;;;4.84;100.00
7441;BME280;29616;51.950;8.572;2023-02-10T10:03:27;102072.63;;;4.77;100.00
7441;BME280;29616;51.950;8.572;2023-02-10T10:06:07;102095.97;;;5.00;100.00
7441;BME280;29616;51.950;8.572;2023-02-10T10:08:48;102072.75;;;4.74;100.00
7441;BME280;29616;51.950;8.572;2023-02-10T10:11:25;102104.75;;;5.25;100.00
7441;BME280;29616;51.950;8.572;2023-02-10T10:13:55;102090.69;;;5.73;100.00
7441;BME280;29616;51.950;8.572;2023-02-10T10:19:43;102077.59;;;5.64;100.00
7441;BME280;29616;51.950;8.572;2023-02-10T10:22:21;102070.03;;;5.89;100.00
7441;BME280;29616;51.950;8.572;2023-02-10T10:25:20;102082.91;;;5.66;100.00
7441;BME280;29616;51.950;8.572;2023-02-10T10:28:06;102072.34;;;5.78;100.00
7441;BME280;29616;51.950;8.572;2023-02-10T10:30:45;102070.28;;;5.65;100.00
7441;BME280;29616;51.950;8.572;2023-02-10T10:33:24;102068.75;;;5.59;100.00
7441;BME280;29616;51.950;8.572;2023-02-10T10:35:56;102062.66;;;5.73;100.00
7441;BME280;29616;51.950;8.572;2023-02-10T10:38:31;102087.09;;;5.73;100.00
7441;BME280;29616;51.950;8.572;2023-02-10T10:41:06;102088.50;;;5.63;100.00
7441;BME280;29616;51.950;8.572;2023-02-10T10:43:42;102079.97;;;5.51;100.00
7441;BME280;29616;51.950;8.572;2023-02-10T10:46:25;102094.19;;;5.75;100.00
7441;BME280;29616;51.950;8.572;2023-02-10T10:48:57;102068.59;;;5.99;100.00
7441;BME280;29616;51.950;8.572;2023-02-10T10:51:28;102076.16;;;6.12;100.00
7441;BME280;29616;51.950;8.572;2023-02-10T10:54:01;102068.59;;;5.81;100.00
7441;BME280;29616;51.950;8.572;2023-02-10T10:56:38;102064.72;;;5.49;100.00
7441;BME280;29616;51.950;8.572;2023-02-10T10:59:14;102066.50;;;5.50;100.00
7441;BME280;29616;51.950;8.572;2023-02-10T11:01:48;102082.41;;;5.76;100.00
7441;BME280;29616;51.950;8.572;2023-02-10T11:04:22;102053.31;;;5.61;100.00
7441;BME280;29616;51.950;8.572;2023-02-10T11:06:53;102063.97;;;6.01;100.00
7441;BME280;29616;51.950;8.572;2023-02-10T11:09:29;102073.94;;;6.20;100.00
7441;BME280;29616;51.950;8.572;2023-02-10T11:12:04;102056.31;;;6.09;100.00
7441;BME280;29616;51.950;8.572;2023-02-10T11:14:39;102062.06;;;6.03;100.00
7441;BME280;29616;51.950;8.572;2023-02-10T11:17:22;102056.84;;;5.99;100.00
7441;BME280;29616;51.950;8.572;2023-02-10T11:19:56;102052.09;;;6.04;100.00
7441;BME280;29616;51.950;8.572;2023-02-10T11:22:24;102039.31;;;6.57;100.00
7441;BME280;29616;51.950;8.572;2023-02-10T11:24:57;102038.78;;;6.51;100.00
7441;BME280;29616;51.950;8.572;2023-02-10T11:27:26;102035.88;;;6.88;100.00
7441;BME280;29616;51.950;8.572;2023-02-10T11:29:58;102025.75;;;7.07;100.00
7441;BME280;29616;51.950;8.572;2023-02-10T11:32:34;102021.25;;;7.55;100.00
7441;BME280;29616;51.950;8.572;2023-02-10T11:35:15;102013.09;;;9.03;100.00
7441;BME280;29616;51.950;8.572;2023-02-10T11:37:44;102021.88;;;9.23;100.00
7441;BME280;29616;51.950;8.572;2023-02-10T11:40:22;102007.84;;;9.69;100.00
7441;BME280;29616;51.950;8.572;2023-02-10T11:42:54;102019.09;;;8.66;100.00
7441;BME280;29616;51.950;8.572;2023-02-10T11:45:25;102002.75;;;8.66;100.00
7441;BME280;29616;51.950;8.572;2023-02-10T11:48:05;102010.84;;;8.82;100.00
7441;BME280;29616;51.950;8.572;2023-02-10T11:50:39;101989.41;;;8.02;100.00
7441;BME280;29616;51.950;8.572;2023-02-10T11:53:18;102006.84;;;9.30;100.00
7441;BME280;29616;51.950;8.572;2023-02-10T11:55:58;102015.91;;;8.30;100.00
7441;BME280;29616;51.950;8.572;2023-02-10T11:58:46;102023.25;;;7.98;100.00
7441;BME280;29616;51.950;8.572;2023-02-10T12:01:44;102001.38;;;7.84;100.00
7441;BME280;29616;51.950;8.572;2023-02-10T12:08:02;102034.72;;;8.03;100.00
7441;BME280;29616;51.950;8.572;2023-02-10T12:10:39;102032.25;;;8.14;100.00
7441;BME280;29616;51.950;8.572;2023-02-10T12:13:20;102010.94;;;8.80;100.00
7441;BME280;29616;51.950;8.572;2023-02-10T12:16:00;102013.38;;;9.13;100.00
7441;BME280;29616;51.950;8.572;2023-02-10T12:18:53;102000.63;;;8.27;100.00
7441;BME280;29616;51.950;8.572;2023-02-10T12:21:47;102015.81;;;8.16;100.00
7441;BME280;29616;51.950;8.572;2023-02-10T12:24:36;102014.47;;;7.77;100.00
7441;BME280;29616;51.950;8.572;2023-02-10T12:27:16;102004.09;;;7.84;100.00
7441;BME280;29616;51.950;8.572;2023-02-10T12:29:58;102010.66;;;8.11;100.00
7441;BME280;29616;51.950;8.572;2023-02-10T12:32:41;102004.34;;;7.95;100.00
7441;BME280;29616;51.950;8.572;2023-02-10T12:35:28;101998.06;;;7.63;100.00
7441;BME280;29616;51.950;8.572;2023-02-10T12:38:22;101980.66;;;7.34;100.00
7441;BME280;29616;51.950;8.572;2023-02-10T12:41:04;101990.09;;;7.45;100.00
7441;BME280;29616;51.950;8.572;2023-02-10T12:43:47;101977.00;;;7.51;100.00
7441;BME280;29616;51.950;8.572;2023-02-10T12:46:26;101975.44;;;7.31;100.00
7441;BME280;29616;51.950;8.572;2023-02-10T12:49:11;101981.28;;;7.24;100.00
7441;BME280;29616;51.950;8.572;2023-02-10T12:51:52;101977.34;;;7.61;100.00
7441;BME280;29616;51.950;8.572;2023-02-10T12:54:29;101968.75;;;9.00;100.00
7441;BME280;29616;51.950;8.572;2023-02-10T12:57:14;101962.19;;;9.71;100.00
7441;BME280;29616;51.950;8.572;2023-02-10T12:59:50;101955.88;;;10.62;100.00
7441;BME280;29616;51.950;8.572;2023-02-10T13:02:28;101952.59;;;10.45;100.00
7441;BME280;29616;51.950;8.572;2023-02-10T13:05:08;101947.91;;;11.46;100.00
7441;BME280;29616;51.950;8.572;2023-02-10T13:07:45;101931.19;;;10.76;100.00
7441;BME280;29616;51.950;8.572;2023-02-10T13:10:27;101946.59;;;10.90;100.00
7441;BME280;29616;51.950;8.572;2023-02-10T13:13:03;101933.47;;;10.95;100.00
7441;BME280;29616;51.950;8.572;2023-02-10T13:15:38;101934.78;;;10.00;100.00
7441;BME280;29616;51.950;8.572;2023-02-10T13:18:18;101938.75;;;10.08;100.00
7441;BME280;29616;51.950;8.572;2023-02-10T13:20:57;101937.28;;;10.42;100.00
7441;BME280;29616;51.950;8.572;2023-02-10T13:23:34;101938.38;;;10.27;100.00
7441;BME280;29616;51.950;8.572;2023-02-10T13:26:34;101922.00;;;9.20;100.00
7441;BME280;29616;51.950;8.572;2023-02-10T13:29:16;101912.91;;;9.60;100.00
7441;BME280;29616;51.950;8.572;2023-02-10T13:32:00;101935.97;;;9.69;100.00
7441;BME280;29616;51.950;8.572;2023-02-10T13:34:34;101928.78;;;9.27;100.00
7441;BME280;29616;51.950;8.572;2023-02-10T13:37:06;101930.69;;;9.93;100.00